Etusivu
METAR-TAF:

METAR-TAF

Lentoasemat :

Sandpoint Airport (Dave Wall Field)

Sandpoint, Idaho, Yhdysvallat

Leveyspiiri: 48-17-58N, Pituuspiiri: 116-33-36W, korkeus merenpinnasta: 648 m

Tämänhetkinen sää

Tämä raportti tehtiin 25 minuuttia sitten, kello 08.55 UTC
Tuuli 3 kn lännestä/lounaasta
Lämpötila -1°C
Kosteus 100%
Ilmanpaine 1018 hPa
Näkyvyys: 6.4 km
Pilvistä 6000 ft:n korkeudessa
heikkoa lumisadetta

METAR: KSZT 170855Z AUTO 24003KT 4SM -SN OVC060 M01/M01 A3006 RMK AO2

Aika: 01:20 (09:20 UTC)


TAF: puuttuu

Säähavainnot ja -ennusteet yli 4000 lentoasemalta (METAR- ja TAF-raportit).

Käytössä olevat sääasemat on merkitty karttaan keltaisilla ja punaisilla pisteillä.

Aseta hiiri pisteen päälle nähdäksesi sääaseman nimen.

Klikkaa sitten nähdäksesi säähavainnot ja -ennusteet.

Kartan vaihtaminen: klikkaa mustalla rastilla varustettuja vihreitä pisteitä, niin voit zoomata sisään; viivalla varustettua vihreää pistettä, niin voit zoomata ulos tai vihreitä nuolia, niin pääset viereisille kartoille.


METAR-TAF: